createdAt,value
2018-03-03T00:00:03.259Z,68.50
2018-03-03T00:02:30.752Z,68.60
2018-03-03T00:04:58.254Z,68.60
2018-03-03T00:07:25.763Z,68.70
2018-03-03T00:09:53.270Z,68.80
2018-03-03T00:12:20.754Z,68.90
2018-03-03T00:14:48.259Z,68.90
2018-03-03T00:17:15.758Z,69.00
2018-03-03T00:19:43.254Z,69.00
2018-03-03T00:22:10.750Z,69.00
2018-03-03T00:24:38.238Z,69.00
2018-03-03T00:27:05.737Z,69.00
2018-03-03T00:29:33.323Z,69.00
2018-03-03T00:32:00.815Z,69.30
2018-03-03T00:34:28.302Z,69.30
2018-03-03T00:36:55.801Z,69.30
2018-03-03T00:39:23.307Z,69.30
2018-03-03T00:41:51.215Z,69.30
2018-03-03T00:44:18.710Z,69.30
2018-03-03T00:46:46.616Z,69.40
2018-03-03T00:49:14.115Z,69.40
2018-03-03T00:51:41.629Z,69.40
2018-03-03T00:54:09.143Z,69.40
2018-03-03T00:56:36.678Z,69.40
2018-03-03T00:59:04.175Z,69.50
2018-03-03T01:01:32.091Z,69.40
2018-03-03T01:03:59.590Z,69.40
2018-03-03T01:06:27.478Z,69.20
2018-03-03T01:08:54.986Z,69.20
2018-03-03T01:11:22.479Z,69.30
2018-03-03T01:13:50.366Z,69.50
2018-03-03T01:16:17.855Z,69.50
2018-03-03T01:18:45.348Z,69.50
2018-03-03T01:21:12.866Z,69.50
2018-03-03T01:23:40.425Z,69.60
2018-03-03T01:26:07.918Z,69.50
2018-03-03T01:28:35.451Z,69.50
2018-03-03T01:31:02.956Z,69.60
2018-03-03T01:33:30.840Z,69.70
2018-03-03T01:35:58.330Z,69.70
2018-03-03T01:38:25.838Z,69.70
2018-03-03T01:40:53.346Z,69.90
2018-03-03T01:43:20.883Z,69.80
2018-03-03T01:45:48.373Z,69.90
2018-03-03T01:48:15.876Z,69.80
2018-03-03T01:50:43.375Z,69.90
2018-03-03T01:53:10.880Z,70.00
2018-03-03T01:55:38.758Z,70.10
2018-03-03T01:58:06.259Z,70.10
2018-03-03T02:00:33.785Z,70.00
2018-03-03T02:03:01.281Z,70.10
2018-03-03T02:05:28.811Z,70.10
2018-03-03T02:07:56.300Z,70.10
2018-03-03T02:10:23.789Z,70.10
2018-03-03T02:12:51.687Z,70.20
2018-03-03T02:15:19.179Z,70.20
2018-03-03T02:17:46.687Z,70.20
2018-03-03T02:20:14.194Z,70.40
2018-03-03T02:22:41.679Z,70.40
2018-03-03T02:25:09.560Z,70.60
2018-03-03T02:27:37.066Z,70.60
2018-03-03T02:30:04.555Z,70.70
2018-03-03T02:32:32.455Z,70.90
2018-03-03T02:34:59.963Z,70.90
2018-03-03T02:37:27.462Z,71.00
2018-03-03T02:39:54.958Z,71.10
2018-03-03T02:42:22.472Z,71.30
2018-03-03T02:44:49.968Z,71.30
2018-03-03T02:47:17.520Z,71.30
2018-03-03T02:49:45.363Z,71.50
2018-03-03T02:52:12.847Z,71.40
2018-03-03T02:54:40.362Z,71.40
2018-03-03T02:57:07.883Z,71.40
2018-03-03T02:59:35.379Z,71.30
2018-03-03T03:02:03.279Z,71.30
2018-03-03T03:04:30.764Z,71.30
2018-03-03T03:06:58.270Z,71.30
2018-03-03T03:09:25.766Z,71.30
2018-03-03T03:11:53.259Z,71.30
2018-03-03T03:14:20.803Z,71.20
2018-03-03T03:16:48.291Z,71.10
2018-03-03T03:19:15.790Z,71.20
2018-03-03T03:21:43.287Z,71.30
2018-03-03T03:24:11.176Z,71.30
2018-03-03T03:26:38.685Z,71.30
2018-03-03T03:29:06.172Z,71.50
2018-03-03T03:31:33.664Z,71.60
2018-03-03T03:34:01.160Z,71.70
2018-03-03T03:36:28.655Z,71.70
2018-03-03T03:38:56.167Z,71.90
2018-03-03T03:41:23.656Z,71.80
2018-03-03T03:43:51.557Z,71.70
2018-03-03T03:46:19.063Z,71.70
2018-03-03T03:48:46.588Z,71.80
2018-03-03T03:51:14.080Z,71.80
2018-03-03T03:53:41.610Z,71.80
2018-03-03T03:56:09.095Z,72.00
2018-03-03T03:58:36.987Z,72.10
2018-03-03T04:01:04.492Z,72.10
2018-03-03T04:03:31.979Z,72.10
2018-03-03T04:05:59.876Z,72.20
2018-03-03T04:08:27.378Z,72.20
2018-03-03T04:10:54.875Z,72.20
2018-03-03T04:13:22.771Z,72.10
2018-03-03T04:15:50.279Z,72.20
2018-03-03T04:18:17.771Z,72.20
2018-03-03T04:20:45.268Z,72.30
2018-03-03T04:23:12.762Z,72.40
2018-03-03T04:25:40.651Z,72.80
2018-03-03T04:28:08.163Z,72.80
2018-03-03T04:30:35.668Z,72.80
2018-03-03T04:33:03.179Z,72.90
2018-03-03T04:35:30.687Z,72.90
2018-03-03T04:37:58.173Z,73.10
2018-03-03T04:40:25.689Z,73.20
2018-03-03T04:42:53.219Z,73.20
2018-03-03T04:45:21.111Z,73.30
2018-03-03T04:47:48.615Z,73.30
2018-03-03T04:50:17.940Z,73.50
2018-03-03T04:52:45.444Z,73.50
2018-03-03T04:55:12.948Z,73.60
2018-03-03T04:57:40.499Z,73.70
2018-03-03T05:00:11.414Z,73.70
2018-03-03T05:02:39.867Z,73.50
2018-03-03T05:08:19.766Z,73.40
2018-03-03T05:10:47.275Z,73.40
2018-03-03T05:13:20.813Z,73.30
2018-03-03T05:15:51.950Z,73.30
2018-03-03T05:21:27.722Z,73.50
2018-03-03T05:24:00.859Z,73.40
2018-03-03T05:29:41.291Z,73.60
2018-03-03T05:32:14.524Z,73.80
2018-03-03T05:34:47.739Z,73.70
2018-03-03T05:40:28.871Z,73.80
2018-03-03T05:43:02.074Z,73.60
2018-03-03T05:45:35.289Z,73.60
2018-03-03T05:51:09.827Z,73.20
2018-03-03T05:56:45.591Z,73.20
2018-03-03T05:59:18.788Z,73.20
2018-03-03T06:04:57.762Z,73.20
2018-03-03T06:07:41.450Z,73.20
2018-03-03T06:10:10.599Z,73.20
2018-03-03T06:12:38.094Z,73.10
2018-03-03T06:15:05.598Z,73.00
2018-03-03T06:17:33.098Z,73.10
2018-03-03T06:20:00.591Z,72.90
2018-03-03T06:22:28.078Z,72.80
2018-03-03T06:24:55.983Z,72.80
2018-03-03T06:27:23.467Z,72.80
2018-03-03T06:29:50.954Z,72.90
2018-03-03T06:32:18.845Z,73.10
2018-03-03T06:34:46.346Z,73.10
2018-03-03T06:37:13.866Z,73.30
2018-03-03T06:39:41.359Z,73.50
2018-03-03T06:42:08.849Z,73.50
2018-03-03T06:44:36.352Z,73.60
2018-03-03T06:47:03.848Z,73.70
2018-03-03T06:49:31.386Z,73.70
2018-03-03T06:51:58.863Z,73.60
2018-03-03T06:54:26.759Z,72.90
2018-03-03T06:56:54.259Z,72.90
2018-03-03T06:59:23.090Z,72.80
2018-03-03T07:01:50.700Z,72.40
2018-03-03T07:04:18.661Z,71.30
2018-03-03T07:06:46.155Z,71.30
2018-03-03T07:09:14.791Z,70.80
2018-03-03T07:11:42.375Z,70.40
2018-03-03T07:14:13.559Z,70.10
2018-03-03T07:16:41.067Z,69.70
2018-03-03T07:19:08.554Z,69.30
2018-03-03T07:21:36.047Z,69.10
2018-03-03T07:24:03.579Z,68.70
2018-03-03T07:26:31.125Z,68.30
2018-03-03T07:28:59.768Z,68.10
2018-03-03T07:31:27.404Z,67.80
2018-03-03T07:33:54.959Z,67.30
2018-03-03T07:36:22.647Z,67.20
2018-03-03T07:38:50.435Z,67.00
2018-03-03T07:41:18.137Z,66.70
2018-03-03T07:43:46.130Z,66.50
2018-03-03T07:46:13.717Z,66.50
2018-03-03T07:48:42.077Z,66.10
2018-03-03T07:51:09.674Z,66.10
2018-03-03T07:53:37.649Z,65.90
2018-03-03T07:56:05.154Z,65.90
2018-03-03T08:01:28.417Z,65.70
2018-03-03T08:03:56.122Z,65.60
2018-03-03T08:06:23.627Z,65.50
2018-03-03T08:08:51.223Z,65.00
2018-03-03T08:11:18.783Z,64.90
2018-03-03T08:13:46.326Z,64.90
2018-03-03T08:16:14.052Z,64.90
2018-03-03T08:18:41.931Z,64.50
2018-03-03T08:21:09.493Z,64.50
2018-03-03T08:23:37.063Z,64.20
2018-03-03T08:26:04.575Z,64.10
2018-03-03T08:28:32.493Z,63.70
2018-03-03T08:30:59.991Z,63.70
2018-03-03T08:33:27.518Z,63.60
2018-03-03T08:35:55.059Z,63.70
2018-03-03T08:38:22.615Z,63.60
2018-03-03T08:40:50.141Z,63.40
2018-03-03T08:43:17.644Z,63.30
2018-03-03T08:45:45.139Z,62.90
2018-03-03T08:48:12.632Z,62.70
2018-03-03T08:50:40.544Z,61.90
2018-03-03T08:53:08.061Z,61.90
2018-03-03T08:55:35.567Z,61.50
2018-03-03T08:58:04.263Z,61.30
2018-03-03T09:00:31.780Z,61.50
2018-03-03T09:02:59.291Z,61.60
2018-03-03T09:05:26.788Z,61.40
2018-03-03T09:07:54.298Z,61.10
2018-03-03T09:10:21.809Z,61.20
2018-03-03T09:12:49.304Z,61.10
2018-03-03T09:15:16.794Z,60.90
2018-03-03T09:17:44.379Z,60.60
2018-03-03T09:20:11.900Z,60.70
2018-03-03T09:22:39.810Z,60.60
2018-03-03T09:25:07.306Z,60.60
2018-03-03T09:27:34.803Z,60.20
2018-03-03T09:30:02.351Z,60.10
2018-03-03T09:32:30.238Z,60.30
2018-03-03T09:34:57.749Z,60.30
2018-03-03T09:37:25.236Z,60.50
2018-03-03T09:39:53.133Z,60.10
2018-03-03T09:42:20.645Z,60.10
2018-03-03T09:44:48.662Z,60.10
2018-03-03T09:47:16.215Z,60.10
2018-03-03T09:49:43.727Z,59.90
2018-03-03T09:52:11.240Z,59.60
2018-03-03T09:54:38.729Z,59.20
2018-03-03T09:57:06.227Z,59.00
2018-03-03T09:59:33.926Z,58.90
2018-03-03T10:02:06.292Z,58.90
2018-03-03T10:04:29.140Z,59.30
2018-03-03T10:06:56.637Z,59.30
2018-03-03T10:09:24.183Z,59.10
2018-03-03T10:11:51.771Z,58.90
2018-03-03T10:14:19.651Z,58.80
2018-03-03T10:16:47.255Z,58.80
2018-03-03T10:19:14.743Z,59.00
2018-03-03T10:21:42.351Z,59.10
2018-03-03T10:24:10.009Z,58.80
2018-03-03T10:26:37.495Z,58.80
2018-03-03T10:29:05.099Z,58.90
2018-03-03T10:31:32.739Z,58.80
2018-03-03T10:34:00.628Z,59.00
2018-03-03T10:36:28.894Z,59.00
2018-03-03T10:38:56.460Z,59.20
2018-03-03T10:41:24.671Z,59.00
2018-03-03T10:43:52.151Z,58.40
2018-03-03T10:46:19.644Z,58.20
2018-03-03T10:48:47.534Z,57.70
2018-03-03T10:51:15.082Z,57.70
2018-03-03T10:53:42.577Z,57.50
2018-03-03T10:56:10.143Z,57.40
2018-03-03T10:58:37.637Z,57.90
2018-03-03T11:01:05.517Z,58.00
2018-03-03T11:03:33.052Z,58.00
2018-03-03T11:06:00.954Z,58.00
2018-03-03T11:08:28.446Z,58.00
2018-03-03T11:10:55.922Z,57.40
2018-03-03T11:13:23.434Z,57.60
2018-03-03T11:15:50.973Z,57.60
2018-03-03T11:18:18.430Z,57.40
2018-03-03T11:20:45.918Z,57.50
2018-03-03T11:23:13.399Z,57.40
2018-03-03T11:25:40.898Z,57.60
2018-03-03T11:28:08.394Z,57.40
2018-03-03T11:30:35.884Z,57.30
2018-03-03T11:33:03.367Z,57.60
2018-03-03T11:35:30.959Z,57.60
2018-03-03T11:37:58.572Z,57.90
2018-03-03T11:40:33.130Z,57.70
2018-03-03T11:42:54.677Z,57.70
2018-03-03T11:45:22.210Z,57.80
2018-03-03T11:47:49.788Z,57.50
2018-03-03T11:50:17.406Z,57.90
2018-03-03T11:52:44.908Z,58.20
2018-03-03T11:55:13.156Z,58.30
2018-03-03T11:57:40.699Z,58.30
2018-03-03T12:00:08.203Z,58.70
2018-03-03T12:02:35.727Z,58.30
2018-03-03T12:05:03.231Z,58.10
2018-03-03T12:07:31.019Z,58.50
2018-03-03T12:09:58.601Z,58.30
2018-03-03T12:12:26.104Z,58.40
2018-03-03T12:14:53.603Z,58.10
2018-03-03T12:17:21.105Z,57.80
2018-03-03T12:19:48.612Z,57.30
2018-03-03T12:22:16.140Z,57.20
2018-03-03T12:24:43.743Z,57.50
2018-03-03T12:27:11.257Z,57.00
2018-03-03T12:29:38.834Z,56.70
2018-03-03T12:32:06.762Z,57.00
2018-03-03T12:34:34.256Z,57.00
2018-03-03T12:37:02.447Z,58.70
2018-03-03T12:39:30.112Z,58.70
2018-03-03T12:41:57.603Z,59.30
2018-03-03T12:44:25.111Z,59.20
2018-03-03T12:46:53.010Z,59.20
2018-03-03T12:49:20.499Z,59.20
2018-03-03T12:51:48.095Z,59.20
2018-03-03T12:54:16.027Z,59.60
2018-03-03T12:56:43.611Z,59.60
2018-03-03T12:59:11.542Z,59.80
2018-03-03T13:01:39.060Z,59.80
2018-03-03T13:04:06.618Z,59.80
2018-03-03T13:06:34.184Z,59.70
2018-03-03T13:09:01.735Z,59.90
2018-03-03T13:11:29.655Z,59.90
2018-03-03T13:13:57.179Z,59.90
2018-03-03T13:16:24.767Z,59.80
2018-03-03T13:18:52.333Z,59.90
2018-03-03T13:21:19.815Z,59.90
2018-03-03T13:23:47.826Z,59.80
2018-03-03T13:26:15.319Z,59.80
2018-03-03T13:28:42.823Z,59.80
2018-03-03T13:31:10.313Z,60.10
2018-03-03T13:33:39.609Z,60.00
2018-03-03T13:36:07.102Z,59.90
2018-03-03T13:38:34.590Z,60.00
2018-03-03T13:41:02.149Z,60.10
2018-03-03T13:43:30.025Z,60.50
2018-03-03T13:45:57.530Z,60.40
2018-03-03T13:48:25.145Z,60.50
2018-03-03T13:50:52.708Z,60.50
2018-03-03T13:53:20.275Z,60.70
2018-03-03T13:55:47.767Z,60.70
2018-03-03T13:58:15.366Z,60.90
2018-03-03T14:00:43.007Z,60.90
2018-03-03T14:03:10.985Z,61.10
2018-03-03T14:05:38.606Z,61.10
2018-03-03T14:08:06.107Z,61.10
2018-03-03T14:10:33.631Z,61.10
2018-03-03T14:13:01.242Z,61.00
2018-03-03T14:15:28.931Z,60.90
2018-03-03T14:17:56.463Z,60.80
2018-03-03T14:20:24.058Z,61.00
2018-03-03T14:22:51.641Z,61.20
2018-03-03T14:25:19.567Z,60.80
2018-03-03T14:27:47.130Z,60.80
2018-03-03T14:30:14.704Z,60.90
2018-03-03T14:32:42.230Z,60.90
2018-03-03T14:35:09.761Z,60.90
2018-03-03T14:37:37.796Z,60.90
2018-03-03T14:40:05.774Z,60.90
2018-03-03T14:42:33.707Z,61.00
2018-03-03T14:45:01.231Z,61.00
2018-03-03T14:47:28.723Z,61.00
2018-03-03T14:49:56.315Z,61.10
2018-03-03T14:52:23.822Z,60.90
2018-03-03T14:54:51.524Z,60.90
2018-03-03T14:57:19.107Z,61.00
2018-03-03T14:59:46.994Z,61.30
2018-03-03T15:02:15.252Z,61.30
2018-03-03T15:04:42.863Z,61.30
2018-03-03T15:07:10.440Z,61.80
2018-03-03T15:09:37.932Z,62.10
2018-03-03T15:12:05.459Z,62.50
2018-03-03T15:14:33.123Z,62.80
2018-03-03T15:17:00.730Z,63.00
2018-03-03T15:19:28.385Z,63.20
2018-03-03T15:21:55.920Z,63.30
2018-03-03T15:24:23.822Z,63.50
2018-03-03T15:26:51.427Z,63.50
2018-03-03T15:29:18.943Z,63.50
2018-03-03T15:31:46.519Z,63.70
2018-03-03T15:34:14.151Z,63.50
2018-03-03T15:36:42.426Z,63.60
2018-03-03T15:39:10.207Z,63.60
2018-03-03T15:41:37.720Z,64.00
2018-03-03T15:44:05.665Z,64.00
2018-03-03T15:46:33.234Z,64.00
2018-03-03T15:49:00.817Z,64.10
2018-03-03T15:51:28.724Z,63.90
2018-03-03T15:53:56.211Z,63.90
2018-03-03T15:56:23.764Z,63.90
2018-03-03T15:58:52.169Z,64.10
2018-03-03T16:01:20.084Z,64.10
2018-03-03T16:03:47.616Z,64.10
2018-03-03T16:06:15.315Z,63.80
2018-03-03T16:08:42.971Z,63.80
2018-03-03T16:11:10.623Z,63.90
2018-03-03T16:13:38.317Z,63.80
2018-03-03T16:16:05.912Z,63.50
2018-03-03T16:18:33.461Z,63.60
2018-03-03T16:21:01.106Z,63.50
2018-03-03T16:23:28.667Z,63.50
2018-03-03T16:25:56.159Z,63.50
2018-03-03T16:28:23.691Z,63.40
2018-03-03T16:30:51.616Z,63.70
2018-03-03T16:33:19.144Z,63.70
2018-03-03T16:35:46.675Z,64.60
2018-03-03T16:38:14.599Z,65.10
2018-03-03T16:40:42.130Z,65.10
2018-03-03T16:43:09.681Z,65.20
2018-03-03T16:45:38.093Z,65.60
2018-03-03T16:48:05.633Z,65.80
2018-03-03T16:50:33.119Z,66.30
2018-03-03T16:53:00.841Z,67.90
2018-03-03T16:55:28.427Z,69.50
2018-03-03T16:57:55.991Z,70.90
2018-03-03T17:00:23.504Z,72.20
2018-03-03T17:02:51.120Z,73.60
2018-03-03T17:05:18.931Z,74.00
2018-03-03T17:07:46.536Z,74.60
2018-03-03T17:10:14.148Z,74.80
2018-03-03T17:12:41.862Z,75.00
2018-03-03T17:15:10.114Z,74.80
2018-03-03T17:17:38.119Z,74.80
2018-03-03T17:20:05.640Z,74.80
2018-03-03T17:22:33.320Z,74.70
2018-03-03T17:25:00.820Z,74.50
2018-03-03T17:27:28.740Z,74.60
2018-03-03T17:29:56.264Z,74.60
2018-03-03T17:32:23.878Z,74.70
2018-03-03T17:34:51.632Z,74.40
2018-03-03T17:37:19.192Z,74.10
2018-03-03T17:39:46.655Z,74.00
2018-03-03T17:42:14.211Z,74.10
2018-03-03T17:44:41.813Z,74.10
2018-03-03T17:47:09.334Z,73.80
2018-03-03T17:49:36.967Z,73.20
2018-03-03T17:52:04.571Z,73.30
2018-03-03T17:54:32.793Z,73.50
2018-03-03T17:57:00.359Z,73.50
2018-03-03T17:59:27.920Z,73.10
2018-03-03T18:01:55.516Z,73.00
2018-03-03T18:04:23.500Z,73.60
2018-03-03T18:06:51.079Z,73.60
2018-03-03T18:09:20.555Z,73.60
2018-03-03T18:11:58.887Z,73.60
2018-03-03T18:14:26.407Z,73.60
2018-03-03T18:16:53.915Z,73.70
2018-03-03T18:19:33.891Z,73.80
2018-03-03T18:22:01.545Z,74.00
2018-03-03T18:24:37.850Z,74.10
2018-03-03T18:27:05.348Z,74.40
2018-03-03T18:29:32.853Z,74.40
2018-03-03T18:32:00.372Z,74.50
2018-03-03T18:34:27.860Z,74.70
2018-03-03T18:36:55.367Z,75.10
2018-03-03T18:39:22.884Z,75.30
2018-03-03T18:41:50.381Z,75.60
2018-03-03T18:44:17.891Z,76.00
2018-03-03T18:46:45.478Z,76.40
2018-03-03T18:49:13.366Z,76.80
2018-03-03T18:51:40.891Z,76.80
2018-03-03T18:54:08.464Z,76.90
2018-03-03T18:56:36.355Z,77.10
2018-03-03T18:59:03.879Z,77.10
2018-03-03T19:01:31.775Z,77.00
2018-03-03T19:03:59.289Z,77.00
2018-03-03T19:06:26.779Z,77.10
2018-03-03T19:08:54.362Z,77.10
2018-03-03T19:11:21.873Z,77.40
2018-03-03T19:13:49.371Z,77.50
2018-03-03T19:16:16.864Z,77.70
2018-03-03T19:18:44.364Z,77.90
2018-03-03T19:21:12.256Z,77.90
2018-03-03T19:23:39.754Z,77.90
2018-03-03T19:26:07.261Z,77.90
2018-03-03T19:28:34.759Z,78.00
2018-03-03T19:31:02.260Z,78.10
2018-03-03T19:33:30.184Z,78.30
2018-03-03T19:35:57.676Z,78.30
2018-03-03T19:38:25.559Z,78.30
2018-03-03T19:40:53.083Z,78.30
2018-03-03T19:43:20.580Z,78.30
2018-03-03T19:45:48.163Z,78.40
2018-03-03T19:48:15.721Z,78.10
2018-03-03T19:50:43.331Z,78.10
2018-03-03T19:53:10.835Z,78.20
2018-03-03T19:55:38.366Z,78.20
2018-03-03T19:58:05.891Z,78.00
2018-03-03T20:00:33.427Z,78.00
2018-03-03T20:03:00.972Z,78.00
2018-03-03T20:05:28.550Z,77.50
2018-03-03T20:07:56.060Z,77.50
2018-03-03T20:10:23.596Z,77.50
2018-03-03T20:12:51.505Z,77.30
2018-03-03T20:15:19.024Z,77.30
2018-03-03T20:17:46.864Z,77.10
2018-03-03T20:20:14.523Z,77.20
2018-03-03T20:22:42.185Z,77.10
2018-03-03T20:25:09.836Z,76.80
2018-03-03T20:27:37.375Z,76.90
2018-03-03T20:30:05.022Z,76.70
2018-03-03T20:32:32.518Z,76.90
2018-03-03T20:35:00.083Z,76.80
2018-03-03T20:37:27.765Z,76.90
2018-03-03T20:39:55.672Z,76.60
2018-03-03T20:42:23.241Z,76.60
2018-03-03T20:44:51.007Z,76.30
2018-03-03T20:47:18.883Z,76.20
2018-03-03T20:49:46.514Z,76.10
2018-03-03T20:52:14.050Z,76.10
2018-03-03T20:54:41.964Z,75.70
2018-03-03T20:57:10.223Z,75.60
2018-03-03T20:59:37.935Z,75.60
2018-03-03T21:02:05.956Z,75.10
2018-03-03T21:04:33.839Z,75.10
2018-03-03T21:07:01.384Z,75.10
2018-03-03T21:09:29.046Z,75.00
2018-03-03T21:11:58.141Z,74.90
2018-03-03T21:14:25.723Z,74.70
2018-03-03T21:16:53.260Z,74.90
2018-03-03T21:19:20.863Z,74.90
2018-03-03T21:21:48.827Z,74.20
2018-03-03T21:24:16.395Z,74.20
2018-03-03T21:26:44.403Z,74.20
2018-03-03T21:29:11.972Z,74.20
2018-03-03T21:31:39.565Z,74.00
2018-03-03T21:34:07.532Z,74.00
2018-03-03T21:36:35.091Z,74.00
2018-03-03T21:39:02.597Z,74.00
2018-03-03T21:41:30.334Z,73.80
2018-03-03T21:43:57.973Z,73.90
2018-03-03T21:46:25.632Z,73.80
2018-03-03T21:48:53.298Z,73.80
2018-03-03T21:51:20.972Z,73.60
2018-03-03T21:53:48.677Z,73.70
2018-03-03T21:56:16.180Z,73.80
2018-03-03T21:58:43.692Z,73.80
2018-03-03T22:01:11.186Z,73.80
2018-03-03T22:03:38.711Z,74.00
2018-03-03T22:06:06.213Z,74.00
2018-03-03T22:08:34.114Z,74.20
2018-03-03T22:11:01.640Z,74.20
2018-03-03T22:13:29.536Z,74.30
2018-03-03T22:15:57.031Z,74.30
2018-03-03T22:18:24.540Z,74.30
2018-03-03T22:20:52.033Z,74.30
2018-03-03T22:23:19.573Z,74.40
2018-03-03T22:25:47.067Z,74.50
2018-03-03T22:28:14.555Z,74.50
2018-03-03T22:30:42.088Z,74.70
2018-03-03T22:33:09.582Z,74.90
2018-03-03T22:35:37.489Z,74.90
2018-03-03T22:38:04.996Z,74.90
2018-03-03T22:40:32.887Z,75.00
2018-03-03T22:43:00.387Z,75.00
2018-03-03T22:45:27.879Z,75.10
2018-03-03T22:47:55.791Z,75.10
2018-03-03T22:50:23.283Z,75.10
2018-03-03T22:52:51.200Z,75.20
2018-03-03T22:55:18.694Z,75.20
2018-03-03T22:57:46.195Z,75.30
2018-03-03T23:00:13.763Z,75.50
2018-03-03T23:02:41.260Z,75.40
2018-03-03T23:05:08.750Z,75.50
2018-03-03T23:07:36.648Z,75.50
2018-03-03T23:10:04.155Z,75.50
2018-03-03T23:12:31.640Z,75.60
2018-03-03T23:14:59.578Z,75.70
2018-03-03T23:17:27.499Z,75.80
2018-03-03T23:19:54.992Z,75.80
2018-03-03T23:22:22.499Z,75.90
2018-03-03T23:24:50.007Z,75.90
2018-03-03T23:27:17.619Z,75.90
2018-03-03T23:29:45.152Z,76.00
2018-03-03T23:32:13.035Z,76.30
2018-03-03T23:34:40.921Z,76.40
2018-03-03T23:37:08.420Z,76.40
2018-03-03T23:39:35.931Z,76.40
2018-03-03T23:42:03.428Z,76.50
2018-03-03T23:44:30.950Z,76.50
2018-03-03T23:46:58.441Z,76.60
2018-03-03T23:49:25.962Z,76.70
2018-03-03T23:51:53.467Z,76.70
2018-03-03T23:54:20.992Z,76.80
2018-03-03T23:56:48.499Z,76.90
2018-03-03T23:59:16.387Z,77.10
